createdAt,value
2022-11-14T00:00:43.147Z,101876.44
2022-11-14T00:03:28.176Z,101879.94
2022-11-14T00:06:12.952Z,101873.28
2022-11-14T00:08:57.855Z,101878.44
2022-11-14T00:11:42.752Z,101881.31
2022-11-14T00:14:27.757Z,101871.78
2022-11-14T00:17:12.558Z,101861.03
2022-11-14T00:19:57.458Z,101862.16
2022-11-14T00:22:42.197Z,101864.41
2022-11-14T00:25:27.176Z,101856.50
2022-11-14T00:28:12.034Z,101860.03
2022-11-14T00:30:56.923Z,101856.38
2022-11-14T00:33:41.725Z,101852.25
2022-11-14T00:36:26.481Z,101844.13
2022-11-14T00:39:12.184Z,101840.50
2022-11-14T00:41:57.119Z,101849.88
2022-11-14T00:44:42.012Z,101843.38
2022-11-14T00:47:26.766Z,101839.00
2022-11-14T00:50:11.564Z,101829.59
2022-11-14T00:52:56.385Z,101827.38
2022-11-14T00:55:41.490Z,101830.25
2022-11-14T00:58:26.275Z,101838.88
2022-11-14T01:01:11.230Z,101827.25
2022-11-14T01:03:56.103Z,101830.13
2022-11-14T01:06:40.834Z,101814.31
2022-11-14T01:09:25.840Z,101823.63
2022-11-14T01:12:11.012Z,101825.09
2022-11-14T01:14:55.761Z,101823.63
2022-11-14T01:17:40.537Z,101813.34
2022-11-14T01:20:25.334Z,101815.47
2022-11-14T01:23:10.212Z,101801.69
2022-11-14T01:25:54.977Z,101795.94
2022-11-14T01:28:40.033Z,101803.94
2022-11-14T01:31:25.117Z,101794.44
2022-11-14T01:34:10.444Z,101787.94
2022-11-14T01:36:55.020Z,101785.06
2022-11-14T01:39:40.024Z,101793.59
2022-11-14T01:42:27.356Z,101782.81
2022-11-14T01:45:31.425Z,101782.81
2022-11-14T01:48:20.412Z,101785.69
2022-11-14T01:51:08.281Z,101779.06
2022-11-14T01:53:54.328Z,101777.56
2022-11-14T01:56:40.505Z,101778.31
2022-11-14T01:59:26.039Z,101773.19
2022-11-14T02:02:16.136Z,101763.81
2022-11-14T02:05:03.172Z,101749.41
2022-11-14T02:07:48.142Z,101763.06
2022-11-14T02:10:32.945Z,101757.28
2022-11-14T02:13:17.712Z,101745.00
2022-11-14T02:16:02.611Z,101741.25
2022-11-14T02:18:47.458Z,101739.91
2022-11-14T02:21:32.365Z,101738.38
2022-11-14T02:24:18.199Z,101731.25
2022-11-14T02:27:04.289Z,101741.38
2022-11-14T02:29:49.048Z,101734.03
2022-11-14T02:32:57.126Z,101719.63
2022-11-14T02:35:38.789Z,101718.09
2022-11-14T02:38:23.563Z,101718.88
2022-11-14T02:41:17.772Z,101721.75
2022-11-14T02:44:02.898Z,101719.50
2022-11-14T02:46:47.932Z,101718.22
2022-11-14T02:49:33.023Z,101724.53
2022-11-14T02:52:18.303Z,101719.50
2022-11-14T02:55:03.677Z,101707.84
2022-11-14T02:57:48.916Z,101711.47
2022-11-14T03:00:33.907Z,101709.47
2022-11-14T03:03:18.741Z,101692.06
2022-11-14T03:06:03.698Z,101690.59
2022-11-14T03:08:48.418Z,101685.56
2022-11-14T03:11:33.308Z,101697.75
2022-11-14T03:14:18.058Z,101693.47
2022-11-14T03:17:02.895Z,101694.75
2022-11-14T03:19:47.671Z,101686.09
2022-11-14T03:22:32.434Z,101681.09
2022-11-14T03:25:17.261Z,101680.84
2022-11-14T03:28:02.091Z,101675.94
2022-11-14T03:30:46.920Z,101682.44
2022-11-14T03:33:32.106Z,101679.56
2022-11-14T03:36:17.350Z,101677.34
2022-11-14T03:39:02.477Z,101670.19
2022-11-14T03:41:47.625Z,101665.94
2022-11-14T03:44:32.465Z,101660.56
2022-11-14T03:47:17.285Z,101659.94
2022-11-14T03:50:02.099Z,101662.81
2022-11-14T03:52:48.885Z,101663.69
2022-11-14T03:55:34.147Z,101661.66
2022-11-14T03:58:18.978Z,101649.66
2022-11-14T04:01:03.942Z,101650.38
2022-11-14T04:03:49.194Z,101651.34
2022-11-14T04:06:34.051Z,101649.97
2022-11-14T04:09:19.165Z,101649.34
2022-11-14T04:12:04.150Z,101647.94
2022-11-14T04:14:48.956Z,101647.94
2022-11-14T04:17:39.496Z,101650.81
2022-11-14T04:20:24.703Z,101643.59
2022-11-14T04:23:09.599Z,101642.84
2022-11-14T04:25:54.449Z,101636.53
2022-11-14T04:28:39.194Z,101635.06
2022-11-14T04:31:23.899Z,101633.25
2022-11-14T04:34:49.211Z,101639.09
2022-11-14T04:37:33.928Z,101637.81
2022-11-14T04:40:18.911Z,101636.53
2022-11-14T04:43:03.766Z,101630.16
2022-11-14T04:45:48.705Z,101625.13
2022-11-14T04:48:33.453Z,101626.66
2022-11-14T04:51:18.367Z,101625.25
2022-11-14T04:54:03.143Z,101619.50
2022-11-14T04:56:47.905Z,101623.22
2022-11-14T04:59:32.832Z,101618.19
2022-11-14T05:02:17.617Z,101608.94
2022-11-14T05:05:02.443Z,101618.31
2022-11-14T05:07:47.261Z,101611.06
2022-11-14T05:10:32.194Z,101603.91
2022-11-14T05:13:16.961Z,101602.44
2022-11-14T05:16:01.855Z,101605.44
2022-11-14T05:18:47.207Z,101611.06
2022-11-14T05:21:32.072Z,101608.72
2022-11-14T05:24:16.814Z,101600.91
2022-11-14T05:27:01.683Z,101595.16
2022-11-14T05:29:46.710Z,101600.28
2022-11-14T05:32:31.497Z,101596.91
2022-11-14T05:35:16.420Z,101589.63
2022-11-14T05:38:02.284Z,101592.50
2022-11-14T05:40:47.245Z,101583.97
2022-11-14T05:43:32.032Z,101581.84
2022-11-14T05:46:17.070Z,101575.34
2022-11-14T05:49:01.917Z,101585.50
2022-11-14T05:51:46.836Z,101581.84
2022-11-14T05:54:31.769Z,101585.56
2022-11-14T05:57:16.558Z,101581.22
2022-11-14T06:00:01.446Z,101582.59
2022-11-14T06:02:46.172Z,101582.84
2022-11-14T06:05:34.669Z,101574.31
2022-11-14T06:08:20.590Z,101574.19
2022-11-14T06:11:05.946Z,101567.06
2022-11-14T06:14:00.850Z,101573.47
2022-11-14T06:16:46.419Z,101566.94
2022-11-14T06:19:32.550Z,101580.25
2022-11-14T06:22:17.939Z,101566.19
2022-11-14T06:25:03.417Z,101575.81
2022-11-14T06:27:48.310Z,101574.88
2022-11-14T06:30:33.582Z,101568.09
2022-11-14T06:33:18.726Z,101571.66
2022-11-14T06:36:04.462Z,101572.81
2022-11-14T06:38:49.274Z,101569.31
2022-11-14T06:41:34.612Z,101569.19
2022-11-14T06:44:20.041Z,101563.59
2022-11-14T06:47:04.889Z,101570.19
2022-11-14T06:49:49.790Z,101577.16
2022-11-14T06:52:34.556Z,101577.75
2022-11-14T06:55:24.986Z,101579.09
2022-11-14T06:58:10.637Z,101575.59
2022-11-14T07:00:55.457Z,101578.16
2022-11-14T07:03:43.584Z,101587.84
2022-11-14T07:06:29.276Z,101569.41
2022-11-14T07:09:14.391Z,101577.31
2022-11-14T07:11:59.330Z,101564.16
2022-11-14T07:14:44.233Z,101562.47
2022-11-14T07:17:31.353Z,101577.84
2022-11-14T07:20:18.501Z,101561.88
2022-11-14T07:23:03.498Z,101571.00
2022-11-14T07:25:48.679Z,101566.09
2022-11-14T07:28:34.179Z,101570.28
2022-11-14T07:31:19.494Z,101576.06
2022-11-14T07:34:05.949Z,101578.72
2022-11-14T07:36:50.757Z,101571.69
2022-11-14T07:39:35.779Z,101573.06
2022-11-14T07:42:20.785Z,101571.47
2022-11-14T07:45:05.762Z,101581.94
2022-11-14T07:47:53.790Z,101566.06
2022-11-14T07:50:38.879Z,101560.44
2022-11-14T07:53:24.303Z,101554.03
2022-11-14T07:56:12.918Z,101552.75
2022-11-14T07:58:58.014Z,101552.44
2022-11-14T08:01:42.848Z,101549.88
2022-11-14T08:04:27.617Z,101548.91
2022-11-14T08:07:12.584Z,101547.28
2022-11-14T08:09:57.464Z,101550.44
2022-11-14T08:12:42.376Z,101548.50
2022-11-14T08:15:27.257Z,101545.75
2022-11-14T08:18:12.128Z,101546.47
2022-11-14T08:20:57.652Z,101542.53
2022-11-14T08:23:42.794Z,101542.63
2022-11-14T08:26:31.537Z,101539.44
2022-11-14T08:29:19.172Z,101539.53
2022-11-14T08:32:04.118Z,101533.09
2022-11-14T08:34:48.853Z,101534.28
2022-11-14T08:37:33.679Z,101537.81
2022-11-14T08:40:18.472Z,101532.59
2022-11-14T08:43:03.408Z,101527.22
2022-11-14T08:45:48.114Z,101528.22
2022-11-14T08:48:33.445Z,101512.56
2022-11-14T08:51:18.968Z,101520.41
2022-11-14T08:54:03.898Z,101529.94
2022-11-14T08:56:48.856Z,101523.81
2022-11-14T08:59:33.569Z,101530.78
2022-11-14T09:02:18.474Z,101522.81
2022-11-14T09:05:03.202Z,101520.44
2022-11-14T09:07:48.088Z,101520.97
2022-11-14T09:10:33.034Z,101521.81
2022-11-14T09:13:17.930Z,101514.47
2022-11-14T09:16:02.938Z,101524.50
2022-11-14T09:18:47.865Z,101519.91
2022-11-14T09:21:32.808Z,101510.81
2022-11-14T09:24:17.599Z,101510.28
2022-11-14T09:27:02.987Z,101516.16
2022-11-14T09:29:47.848Z,101509.81
2022-11-14T09:32:32.710Z,101509.09
2022-11-14T09:35:17.408Z,101503.31
2022-11-14T09:38:02.529Z,101503.31
2022-11-14T09:40:59.828Z,101513.91
2022-11-14T09:43:55.220Z,101516.63
2022-11-14T09:46:46.820Z,101500.97
2022-11-14T09:49:34.650Z,101503.19
2022-11-14T09:52:27.269Z,101497.09
2022-11-14T09:55:13.437Z,101495.84
2022-11-14T09:57:58.146Z,101498.56
2022-11-14T10:00:47.401Z,101482.63
2022-11-14T10:03:48.043Z,101494.44
2022-11-14T10:06:33.666Z,101472.31
2022-11-14T10:09:30.936Z,101478.16
2022-11-14T10:12:22.912Z,101468.78
2022-11-14T10:15:13.972Z,101471.22
2022-11-14T10:18:19.517Z,101468.13
2022-11-14T10:21:10.349Z,101471.38
2022-11-14T10:24:14.007Z,101469.72
2022-11-14T10:27:02.480Z,101471.38
2022-11-14T10:30:08.828Z,101463.56
2022-11-14T10:32:59.245Z,101454.44
2022-11-14T10:35:55.253Z,101450.63
2022-11-14T10:39:03.913Z,101445.34
2022-11-14T10:42:00.717Z,101442.72
2022-11-14T10:44:50.951Z,101435.47
2022-11-14T10:47:40.219Z,101433.81
2022-11-14T10:50:27.454Z,101441.53
2022-11-14T10:53:14.991Z,101442.94
2022-11-14T10:56:04.726Z,101439.03
2022-11-14T10:58:50.511Z,101437.25
2022-11-14T11:01:36.645Z,101427.09
2022-11-14T11:04:28.711Z,101419.84
2022-11-14T11:07:39.616Z,101424.97
2022-11-14T11:10:43.583Z,101424.09
2022-11-14T11:13:33.359Z,101415.63
2022-11-14T11:16:19.739Z,101401.31
2022-11-14T11:19:26.264Z,101407.56
2022-11-14T11:22:25.134Z,101392.44
2022-11-14T11:25:21.967Z,101378.69
2022-11-14T11:28:13.988Z,101388.38
2022-11-14T11:31:00.422Z,101407.81
2022-11-14T11:33:45.383Z,101407.91
2022-11-14T11:36:30.277Z,101395.09
2022-11-14T11:39:27.337Z,101394.31
2022-11-14T11:42:17.425Z,101391.81
2022-11-14T11:45:03.422Z,101390.88
2022-11-14T11:48:08.727Z,101381.56
2022-11-14T11:50:53.537Z,101383.25
2022-11-14T11:53:39.638Z,101359.13
2022-11-14T11:56:30.441Z,101369.19
2022-11-14T11:59:25.015Z,101371.91
2022-11-14T12:02:21.119Z,101368.09
2022-11-14T12:05:06.425Z,101366.84
2022-11-14T12:07:59.621Z,101371.41
2022-11-14T12:10:45.792Z,101371.72
2022-11-14T12:13:50.364Z,101378.13
2022-11-14T12:16:50.655Z,101375.72
2022-11-14T12:19:39.043Z,101381.28
2022-11-14T12:22:30.038Z,101386.84
2022-11-14T12:25:27.146Z,101375.41
2022-11-14T12:28:30.883Z,101368.03
2022-11-14T12:31:16.897Z,101371.56
2022-11-14T12:34:13.882Z,101370.81
2022-11-14T12:36:58.679Z,101365.28
2022-11-14T12:39:43.632Z,101367.75
2022-11-14T12:42:28.622Z,101362.28
2022-11-14T12:45:32.175Z,101355.75
2022-11-14T12:48:26.157Z,101353.00
2022-11-14T12:51:26.607Z,101350.66
2022-11-14T12:54:30.422Z,101348.69
2022-11-14T12:57:37.760Z,101335.91
2022-11-14T13:00:22.952Z,101345.50
2022-11-14T13:03:20.261Z,101344.69
2022-11-14T13:06:11.634Z,101340.38
2022-11-14T13:09:02.747Z,101334.59
2022-11-14T13:12:06.492Z,101330.41
2022-11-14T13:15:10.925Z,101333.63
2022-11-14T13:18:21.316Z,101333.88
2022-11-14T13:21:34.501Z,101319.53
2022-11-14T13:24:19.622Z,101326.00
2022-11-14T13:27:39.240Z,101326.72
2022-11-14T13:30:54.053Z,101320.31
2022-11-14T13:33:39.897Z,101315.41
2022-11-14T13:36:34.890Z,101316.59
2022-11-14T13:39:38.940Z,101312.03
2022-11-14T13:42:46.670Z,101309.06
2022-11-14T13:45:37.957Z,101305.00
2022-11-14T13:48:29.203Z,101301.81
2022-11-14T13:51:41.621Z,101301.81
2022-11-14T13:54:19.921Z,101299.66
2022-11-14T13:57:20.965Z,101296.03
2022-11-14T14:00:18.438Z,101301.06
2022-11-14T14:03:31.594Z,101295.31
2022-11-14T14:06:20.930Z,101298.81
2022-11-14T14:09:32.306Z,101292.44
2022-11-14T14:12:26.238Z,101290.28
2022-11-14T14:15:14.312Z,101294.06
2022-11-14T14:18:05.725Z,101286.72
2022-11-14T14:21:08.819Z,101287.59
2022-11-14T14:24:05.864Z,101285.19
2022-11-14T14:26:57.515Z,101286.97
2022-11-14T14:29:45.688Z,101272.47
2022-11-14T14:32:30.581Z,101279.94
2022-11-14T14:35:25.328Z,101280.31
2022-11-14T14:38:13.878Z,101287.03
2022-11-14T14:40:58.957Z,101271.19
2022-11-14T14:43:44.620Z,101269.53
2022-11-14T14:46:30.314Z,101262.66
2022-11-14T14:49:18.854Z,101258.59
2022-11-14T14:52:18.751Z,101258.97
2022-11-14T14:55:04.394Z,101254.91
2022-11-14T14:57:49.435Z,101263.75
2022-11-14T15:00:34.391Z,101250.06
2022-11-14T15:03:19.225Z,101262.63
2022-11-14T15:06:05.314Z,101256.94
2022-11-14T15:08:50.361Z,101253.50
2022-11-14T15:11:35.585Z,101250.25
2022-11-14T15:14:21.953Z,101253.06
2022-11-14T15:17:06.995Z,101247.34
2022-11-14T15:19:52.195Z,101243.88
2022-11-14T15:22:37.354Z,101233.25
2022-11-14T15:25:22.312Z,101241.31
2022-11-14T15:28:14.003Z,101241.09
2022-11-14T15:30:59.712Z,101246.31
2022-11-14T15:33:45.060Z,101236.69
2022-11-14T15:36:29.993Z,101231.34
2022-11-14T15:39:27.445Z,101232.47
2022-11-14T15:42:24.417Z,101238.31
2022-11-14T15:45:21.584Z,101223.97
2022-11-14T15:48:11.680Z,101222.94
2022-11-14T15:50:56.531Z,101221.94
2022-11-14T15:53:48.017Z,101217.47
2022-11-14T15:56:33.814Z,101229.63
2022-11-14T15:59:18.630Z,101232.56
2022-11-14T16:02:10.765Z,101223.97
2022-11-14T16:04:56.054Z,101224.09
2022-11-14T16:07:40.838Z,101218.44
2022-11-14T16:10:26.461Z,101222.38
2022-11-14T16:13:11.516Z,101214.84
2022-11-14T16:15:56.356Z,101221.13
2022-11-14T16:18:41.241Z,101228.47
2022-11-14T16:21:26.170Z,101221.94
2022-11-14T16:24:15.961Z,101227.13
2022-11-14T16:27:01.049Z,101229.69
2022-11-14T16:29:45.930Z,101228.66
2022-11-14T16:32:30.745Z,101236.81
2022-11-14T16:35:17.085Z,101240.53
2022-11-14T16:38:01.936Z,101231.97
2022-11-14T16:40:46.860Z,101226.78
2022-11-14T16:43:32.029Z,101220.28
2022-11-14T16:46:17.157Z,101217.31
2022-11-14T16:49:02.121Z,101202.97
2022-11-14T16:51:49.163Z,101205.75
2022-11-14T16:54:34.611Z,101203.91
2022-11-14T16:57:19.484Z,101218.16
2022-11-14T17:00:04.914Z,101227.34
2022-11-14T17:02:49.805Z,101213.19
2022-11-14T17:05:35.479Z,101222.03
2022-11-14T17:08:20.373Z,101232.34
2022-11-14T17:11:09.328Z,101225.25
2022-11-14T17:13:54.393Z,101215.94
2022-11-14T17:16:39.272Z,101222.84
2022-11-14T17:19:24.192Z,101230.59
2022-11-14T17:22:09.072Z,101217.47
2022-11-14T17:24:53.954Z,101217.22
2022-11-14T17:27:38.774Z,101220.09
2022-11-14T17:30:23.802Z,101215.16
2022-11-14T17:33:09.364Z,101206.00
2022-11-14T17:35:54.578Z,101209.47
2022-11-14T17:38:40.101Z,101215.59
2022-11-14T17:41:24.884Z,101207.94
2022-11-14T17:44:09.885Z,101205.31
2022-11-14T17:46:54.656Z,101209.44
2022-11-14T17:49:39.547Z,101201.84
2022-11-14T17:52:24.257Z,101191.75
2022-11-14T17:55:09.270Z,101200.00
2022-11-14T17:57:54.123Z,101198.03
2022-11-14T18:00:38.819Z,101194.38
2022-11-14T18:03:23.729Z,101188.88
2022-11-14T18:06:08.934Z,101183.56
2022-11-14T18:08:53.956Z,101190.88
2022-11-14T18:11:39.629Z,101191.06
2022-11-14T18:14:24.727Z,101192.22
2022-11-14T18:17:13.559Z,101181.34
2022-11-14T18:20:00.689Z,101175.06
2022-11-14T18:22:45.754Z,101171.19
2022-11-14T18:25:31.449Z,101173.66
2022-11-14T18:28:16.550Z,101172.56
2022-11-14T18:31:03.424Z,101165.22
2022-11-14T18:33:48.428Z,101158.22
2022-11-14T18:36:33.349Z,101158.63
2022-11-14T18:39:18.188Z,101162.22
2022-11-14T18:42:03.089Z,101160.94
2022-11-14T18:44:48.525Z,101159.16
2022-11-14T18:47:33.366Z,101153.59
2022-11-14T18:50:18.340Z,101151.03
2022-11-14T18:53:03.145Z,101149.41
2022-11-14T18:55:53.066Z,101145.34
2022-11-14T18:58:39.817Z,101152.66
2022-11-14T19:01:26.092Z,101153.31
2022-11-14T19:04:11.005Z,101147.53
2022-11-14T19:06:56.387Z,101143.09
2022-11-14T19:09:44.162Z,101143.28
2022-11-14T19:12:29.117Z,101143.28
2022-11-14T19:15:13.819Z,101144.00
2022-11-14T19:17:58.719Z,101142.06
2022-11-14T19:20:43.533Z,101144.94
2022-11-14T19:23:28.603Z,101143.34
2022-11-14T19:26:13.723Z,101141.38
2022-11-14T19:29:01.857Z,101143.16
2022-11-14T19:31:47.153Z,101139.78
2022-11-14T19:34:32.104Z,101125.38
2022-11-14T19:37:17.041Z,101124.63
2022-11-14T19:40:02.003Z,101116.81
2022-11-14T19:42:46.674Z,101104.34
2022-11-14T19:45:33.313Z,101106.59
2022-11-14T19:48:18.315Z,101105.84
2022-11-14T19:51:07.039Z,101100.09
2022-11-14T19:53:53.261Z,101097.84
2022-11-14T19:56:38.101Z,101105.03
2022-11-14T19:59:24.824Z,101105.31
2022-11-14T20:02:13.484Z,101097.16
2022-11-14T20:04:58.361Z,101090.25
2022-11-14T20:07:43.517Z,101100.31
2022-11-14T20:10:28.495Z,101117.69
2022-11-14T20:13:13.976Z,101102.53
2022-11-14T20:15:59.840Z,101109.03
2022-11-14T20:18:45.657Z,101106.81
2022-11-14T20:21:31.219Z,101106.06
2022-11-14T20:24:21.316Z,101106.81
2022-11-14T20:27:06.128Z,101107.38
2022-11-14T20:29:50.857Z,101117.53
2022-11-14T20:32:35.847Z,101112.41
2022-11-14T20:35:20.683Z,101111.66
2022-11-14T20:38:05.890Z,101107.38
2022-11-14T20:40:54.915Z,101105.97
2022-11-14T20:43:39.911Z,101111.09
2022-11-14T20:46:24.902Z,101111.84
2022-11-14T20:49:10.293Z,101105.22
2022-11-14T20:51:55.101Z,101102.34
2022-11-14T20:54:39.937Z,101099.22
2022-11-14T20:57:24.791Z,101096.97
2022-11-14T21:00:10.848Z,101099.22
2022-11-14T21:02:59.034Z,101092.72
2022-11-14T21:05:44.167Z,101101.59
2022-11-14T21:08:31.401Z,101097.34
2022-11-14T21:11:20.999Z,101097.34
2022-11-14T21:14:09.161Z,101097.88
2022-11-14T21:16:54.532Z,101089.88
2022-11-14T21:19:39.418Z,101093.44
2022-11-14T21:22:27.424Z,101082.66
2022-11-14T21:25:12.704Z,101089.81
2022-11-14T21:27:58.146Z,101089.34
2022-11-14T21:30:44.164Z,101072.03
2022-11-14T21:33:30.696Z,101082.81
2022-11-14T21:39:24.914Z,101078.53
2022-11-14T21:42:13.035Z,101082.91
2022-11-14T21:45:02.335Z,101072.03
2022-11-14T21:47:47.471Z,101072.03
2022-11-14T21:50:32.517Z,101060.50
2022-11-14T21:53:17.535Z,101061.22
2022-11-14T21:56:16.489Z,101060.50
2022-11-14T21:59:14.886Z,101062.72
2022-11-14T22:02:19.267Z,101059.84
2022-11-14T22:05:04.224Z,101051.75
2022-11-14T22:07:49.450Z,101049.53
2022-11-14T22:10:34.331Z,101043.69
2022-11-14T22:13:24.507Z,101050.84
2022-11-14T22:16:19.423Z,101049.38
2022-11-14T22:19:05.586Z,101047.13
2022-11-14T22:21:50.697Z,101044.91
2022-11-14T22:24:38.619Z,101050.56
2022-11-14T22:27:23.606Z,101054.22
2022-11-14T22:30:08.759Z,101057.66
2022-11-14T22:32:53.903Z,101051.88
2022-11-14T22:35:38.728Z,101041.09
2022-11-14T22:38:23.549Z,101047.53
2022-11-14T22:41:12.226Z,101050.50
2022-11-14T22:43:57.496Z,101050.41
2022-11-14T22:46:42.728Z,101048.25
2022-11-14T22:49:27.558Z,101047.53
2022-11-14T22:52:12.436Z,101048.91
2022-11-14T22:54:57.258Z,101045.28
2022-11-14T22:57:42.121Z,101050.31
2022-11-14T23:00:26.981Z,101036.56
2022-11-14T23:03:16.196Z,101037.19
2022-11-14T23:06:10.450Z,101036.47
2022-11-14T23:08:55.491Z,101041.50
2022-11-14T23:11:40.659Z,101038.63
2022-11-14T23:14:25.610Z,101044.28
2022-11-14T23:17:10.564Z,101034.06
2022-11-14T23:19:55.328Z,101029.88
2022-11-14T23:22:40.939Z,101034.16
2022-11-14T23:25:26.369Z,101028.41
2022-11-14T23:28:11.413Z,101021.88
2022-11-14T23:30:56.890Z,101030.44
2022-11-14T23:33:41.932Z,101011.66
2022-11-14T23:36:26.793Z,101013.06
2022-11-14T23:39:11.632Z,101018.06
2022-11-14T23:41:56.574Z,101007.94
2022-11-14T23:44:41.361Z,101006.44
2022-11-14T23:47:26.236Z,101007.13
2022-11-14T23:50:11.009Z,101007.78
2022-11-14T23:52:55.755Z,100997.75
2022-11-14T23:55:41.966Z,100991.13
2022-11-14T23:58:27.295Z,100995.50
